Terminal Aerodrome Forecast
Issued by NWS Glasgow, MT

Home | Current Version | Previous Version | Text Only | Print | Product List | Glossary On
Versions: 1 2 3 4 5 6 7 8 9 10 11 12
000
FTUS45 KGGW 180500
TAFGGW
TAF
KGGW 180521Z 1806/1906 11013KT P6SM SCT150 BKN250
     FM181500 20008KT P6SM FEW150 SCT300
     FM181900 23013G19KT P6SM SCT120 BKN200
     FM190000 18007KT P6SM SKC=

USA.gov is the U.S. government's official web portal to all federal, state and local government web resources and services.